DTTJ/DJE METAR and TAF weather

Enter ICAO airport designator
Station Type Date Time Source
DTTJ METAR 2021/08/01 17:00 UTC NOAA

DTTJ 011700Z 11010KT CAVOK 42/09 Q1009 NOSIG


Station Type Date Time Source
DTTJ Decoded METAR 2021/08/01 17:00 UTC NOAA

Djerba Mellita, Tunisia (DTTJ) 33-52N 010-46E 4M
Aug 01, 2021 - 01:00 PM EDT / 2021.08.01 1700 UTC
Wind: from the ESE (110 degrees) at 12 MPH (10 KT):0
Visibility: greater than 7 mile(s):0
Temperature: 107 F (42 C)
Dew Point: 48 F (9 C)
Relative Humidity: 13%
Pressure (altimeter): 29.80 in. Hg (1009 hPa)
ob: DTTJ 011700Z 11010KT CAVOK 42/09 Q1009 NOSIG
cycle: 17

Station Type Date Time Source
DTTJ TAF 2021/08/01 12:33 UTC NOAA

TAF DTTJ 011100Z 0112/0212 15007KT CAVOK
TEMPO 0118/0122 14015KT
BECMG 0122/0124 04018KT

Example: see airport list